• Join FlightAware (Why Join?)
  • Login
  • US Flag 
12:17PM EDT


 

Airport Tracker/Info


-or-


 

Live Flight TrackerFlight Track Log ✈ AUB1736 ✈ 10-May-2013 ✈ EDDM / MUC - LATI / TIA

Flight Track Log - Related Links

Times and Time Zones

All times are in EDT time to prevent confusion due to time zone crossing. See the AUB1736 flight status page for this flight to view local times or setup timezone preferences in your user account.

Time Position Orientation Groundspeed Altitude Reporting Facility
EDT Latitude Longitude Course Direction KTS MPH feet Rate Location/Type
03:49AM 48.1161 12.1047 138° Southeast  Level Estimated
03:50AM 48.0367 12.2102 138° Southeast  Level Estimated
03:51AM 47.9572 12.3154 138° Southeast  Level Estimated
03:52AM 47.8776 12.4203 139° Southeast  Level Estimated
03:53AM 47.7980 12.5249 139° Southeast  Level Estimated
03:54AM 47.7182 12.6291 139° Southeast  Level Estimated
03:55AM 47.6383 12.7331 139° Southeast  Level Estimated
03:56AM 47.5583 12.8367 139° Southeast  Level Estimated
03:57AM 47.4782 12.9399 139° Southeast  Level Estimated
03:58AM 47.3981 13.0429 139° Southeast  Level Estimated
03:59AM 47.3178 13.1456 139° Southeast  Level Estimated
04:00AM 47.2375 13.2479 139° Southeast  Level Estimated
04:01AM 47.1570 13.3500 139° Southeast  Level Estimated
04:02AM 47.0765 13.4517 139° Southeast  Level Estimated
04:03AM 46.9959 13.5532 139° Southeast  Level Estimated
04:04AM 46.9152 13.6543 139° Southeast  Level Estimated
04:05AM 46.8344 13.7551 139° Southeast  Level Estimated
04:06AM 46.7535 13.8556 140° Southeast  Level Estimated
04:07AM 46.6726 13.9558 140° Southeast  Level Estimated
04:08AM 46.5915 14.0557 140° Southeast  Level Estimated
04:09AM 46.5103 14.1554 140° Southeast  Level Estimated
04:10AM 46.4291 14.2547 140° Southeast  Level Estimated
04:11AM 46.3478 14.3537 140° Southeast  Level Estimated
04:12AM 46.2664 14.4524 140° Southeast  Level Estimated
04:13AM 46.1849 14.5509 140° Southeast  Level Estimated
04:14AM 46.1033 14.6490 140° Southeast  Level Estimated
04:15AM 46.0217 14.7469 140° Southeast  Level Estimated
04:16AM 45.9399 14.8444 140° Southeast  Level Estimated
04:17AM 45.8581 14.9417 140° Southeast  Level Estimated
04:18AM 45.7762 15.0387 140° Southeast  Level Estimated
04:19AM 45.6942 15.1354 140° Southeast  Level Estimated
04:20AM 45.6122 15.2318 141° Southeast  Level Estimated
04:21AM 45.5300 15.3280 141° Southeast  Level Estimated
04:22AM 45.4478 15.4238 141° Southeast  Level Estimated
04:23AM 45.3655 15.5194 141° Southeast  Level Estimated
04:24AM 45.2831 15.6147 141° Southeast  Level Estimated
04:25AM 45.2006 15.7097 141° Southeast  Level Estimated
04:26AM 45.1181 15.8045 141° Southeast  Level Estimated
04:27AM 45.0355 15.8990 141° Southeast  Level Estimated
04:28AM 44.9528 15.9932 141° Southeast  Level Estimated
04:29AM 44.8700 16.0871 141° Southeast  Level Estimated
04:30AM 44.7872 16.1808 141° Southeast  Level Estimated
04:31AM 44.7042 16.2742 141° Southeast  Level Estimated
04:32AM 44.6212 16.3673 141° Southeast  Level Estimated
04:33AM 44.5382 16.4602 141° Southeast  Level Estimated
04:34AM 44.4550 16.5528 142° Southeast  Level Estimated
04:35AM 44.3718 16.6451 142° Southeast  Level Estimated
04:36AM 44.2885 16.7372 142° Southeast  Level Estimated
04:37AM 44.2051 16.8290 142° Southeast  Level Estimated
04:38AM 44.1216 16.9205 142° Southeast  Level Estimated
04:39AM 44.0381 17.0118 142° Southeast  Level Estimated
04:40AM 43.9545 17.1029 142° Southeast  Level Estimated
04:41AM 43.8708 17.1937 142° Southeast  Level Estimated
04:42AM 43.7871 17.2842 142° Southeast  Level Estimated
04:43AM 43.7033 17.3745 142° Southeast  Level Estimated
04:44AM 43.6194 17.4645 142° Southeast  Level Estimated
04:45AM 43.5355 17.5543 142° Southeast  Level Estimated
04:46AM 43.4514 17.6438 142° Southeast  Level Estimated
04:47AM 43.3674 17.7330 142° Southeast  Level Estimated
04:48AM 43.2832 17.8221 142° Southeast  Level Estimated
04:49AM 43.1990 17.9108 142° Southeast  Level Estimated
04:50AM 43.1147 17.9994 143° Southeast  Level Estimated
04:51AM 43.0303 18.0877 143° Southeast  Level Estimated
04:52AM 42.9459 18.1757 143° Southeast  Level Estimated
04:53AM 42.8614 18.2635 143° Southeast  Level Estimated
04:54AM 42.7768 18.3511 143° Southeast  Level Estimated
04:55AM 42.6922 18.4384 143° Southeast  Level Estimated
04:56AM 42.6074 18.5255 143° Southeast  Level Estimated
04:57AM 42.5227 18.6124 143° Southeast  Level Estimated
04:58AM 42.4379 18.6990 143° Southeast  Level Estimated
04:59AM 42.3530 18.7854 143° Southeast  Level Estimated
05:00AM 42.2680 18.8715 143° Southeast  Level Estimated
05:01AM 42.1830 18.9574 143° Southeast  Level Estimated
05:02AM 42.0979 19.0431 143° Southeast  Level Estimated
05:03AM 42.0127 19.1286 143° Southeast  Level Estimated
05:04AM 41.9275 19.2138 143° Southeast  Level Estimated
05:05AM 41.8422 19.2988 143° Southeast  Level Estimated
05:06AM 41.7569 19.3836 143° Southeast  Level Estimated
05:07AM 41.6715 19.4681 144° Southeast  Level Estimated
05:08AM 41.5860 19.5525 144° Southeast  Level Estimated
05:09AM 41.5005 19.6366 144° Southeast  Level Estimated
05:10AM 41.4149 19.7204 144° Southeast  Level Estimated
05:11AM 41.4147 19.7206 142° Southeast  Level Estimated
05:12AM 41.4147 19.7206 21° North  Level Estimated
05:13AM 41.4147 19.7206 21° North  Level Estimated
05:14AM 41.4147 19.7206 21° North  Level Estimated
05:15AM 41.4147 19.7206 21° North  Level Estimated
05:16AM 41.4147 19.7206 21° North  Level Estimated
05:17AM 41.4147 19.7206 21° North  Level Estimated
05:18AM 41.4147 19.7206 21° North  Level Estimated
05:19AM 41.4147 19.7206 21° North  Level Estimated
05:20AM 41.4147 19.7206 21° North  Level Estimated
05:21AM 41.4147 19.7206 21° North  Level Estimated
05:22AM 41.4147 19.7206 21° North  Level Estimated
05:23AM 41.4147 19.7206 21° North  Level Estimated
05:24AM 41.4147 19.7206 21° North  Level Estimated